Time;durP1;ratioP1;P1;durP2;ratioP2;P2;SDS_P1;SDS_P2;PMS_P1;PMS_P2;Temp;Humidity;BMP_temperature;BMP_pressure;BME280_temperature;BME280_humidity;BME280_pressure;Samples;Min_cycle;Max_cycle;Signal;HPM_P1;HPM_P2
2023/06/28 00:00:18;;;;;;;9.80;2.40;;;;;;;;;;5002155;28;20235;-60
2023/06/28 00:02:44;;;;;;;8.13;2.30;;;;;;;;;;5002477;28;20218;-60
2023/06/28 00:05:09;;;;;;;6.95;2.40;;;;;;;;;;5001902;28;20217;-60
2023/06/28 00:07:35;;;;;;;7.80;2.15;;;;;;;;;;5000964;28;20676;-60
2023/06/28 00:10:00;;;;;;;7.10;2.30;;;;;;;;;;4978507;28;20279;-60
2023/06/28 00:12:27;;;;;;;7.72;2.17;;;;;;;;;;4974442;28;20205;-60
2023/06/28 00:14:53;;;;;;;5.57;2.40;;;;;;;;;;4976584;28;20708;-60
2023/06/28 00:17:19;;;;;;;6.35;2.17;;;;;;;;;;4993961;28;20215;-59
2023/06/28 00:19:47;;;;;;;7.32;2.38;;;;;;;;;;4984411;28;20217;-60
2023/06/28 00:22:13;;;;;;;9.68;2.33;;;;;;;;;;5001470;28;20332;-60
2023/06/28 00:24:39;;;;;;;7.30;2.50;;;;;;;;;;5001878;28;20225;-60
2023/06/28 00:27:04;;;;;;;7.20;2.30;;;;;;;;;;5001368;28;20559;-60
2023/06/28 00:29:30;;;;;;;5.38;2.03;;;;;;;;;;5002284;28;20227;-60
2023/06/28 00:31:55;;;;;;;6.82;2.08;;;;;;;;;;4994828;28;20782;-60
2023/06/28 00:34:20;;;;;;;7.75;2.40;;;;;;;;;;4989141;28;20304;-60
2023/06/28 00:36:46;;;;;;;5.90;2.22;;;;;;;;;;4973916;28;20644;-60
2023/06/28 00:39:11;;;;;;;8.35;2.78;;;;;;;;;;4980675;28;20596;-60
2023/06/28 00:41:36;;;;;;;6.30;2.55;;;;;;;;;;4983285;28;20698;-60
2023/06/28 00:44:03;;;;;;;6.45;2.33;;;;;;;;;;5001540;28;20217;-59
2023/06/28 00:46:29;;;;;;;9.38;2.33;;;;;;;;;;4992885;28;20217;-60
2023/06/28 00:48:54;;;;;;;9.35;2.10;;;;;;;;;;4982576;28;20240;-60
2023/06/28 00:51:19;;;;;;;7.95;2.40;;;;;;;;;;4982094;28;20603;-60
2023/06/28 00:53:45;;;;;;;6.40;2.42;;;;;;;;;;4977537;28;20217;-59
2023/06/28 00:56:10;;;;;;;8.77;2.90;;;;;;;;;;4974169;28;20987;-59
2023/06/28 00:58:35;;;;;;;7.38;2.70;;;;;;;;;;4972893;28;20291;-59
2023/06/28 01:01:00;;;;;;;4.95;2.25;;;;;;;;;;4978364;28;20797;-59
2023/06/28 01:03:26;;;;;;;8.75;2.40;;;;;;;;;;4982667;28;20703;-59
2023/06/28 01:05:52;;;;;;;9.45;2.50;;;;;;;;;;4983936;28;20687;-59
2023/06/28 01:08:17;;;;;;;7.55;2.20;;;;;;;;;;5000126;28;20225;-59
2023/06/28 01:10:43;;;;;;;7.45;2.10;;;;;;;;;;5011814;28;20687;-59
2023/06/28 01:13:08;;;;;;;8.32;2.20;;;;;;;;;;5011002;28;20246;-59
2023/06/28 01:15:33;;;;;;;6.53;2.50;;;;;;;;;;5009775;28;20219;-59
2023/06/28 01:18:00;;;;;;;6.20;2.30;;;;;;;;;;5011723;28;20213;-60
2023/06/28 01:20:27;;;;;;;7.50;2.38;;;;;;;;;;5009977;28;20217;-59
2023/06/28 01:22:53;;;;;;;8.00;2.47;;;;;;;;;;5011032;28;20236;-59
2023/06/28 01:25:19;;;;;;;5.97;2.30;;;;;;;;;;5011288;28;20243;-59
2023/06/28 01:27:44;;;;;;;6.53;2.38;;;;;;;;;;5011675;28;20711;-59
2023/06/28 01:30:12;;;;;;;9.27;2.50;;;;;;;;;;5010608;28;20232;-60
2023/06/28 01:32:37;;;;;;;6.40;2.20;;;;;;;;;;5011489;28;20299;-59
2023/06/28 01:35:03;;;;;;;8.38;2.40;;;;;;;;;;5010888;28;20295;-59
2023/06/28 01:37:28;;;;;;;6.15;2.20;;;;;;;;;;5011450;28;20750;-59
2023/06/28 01:39:54;;;;;;;7.75;2.42;;;;;;;;;;5011398;28;20262;-59
2023/06/28 01:42:19;;;;;;;8.65;2.65;;;;;;;;;;5010706;28;20247;-60
2023/06/28 01:44:44;;;;;;;7.38;2.38;;;;;;;;;;5010129;28;20216;-59
2023/06/28 01:47:10;;;;;;;6.75;2.35;;;;;;;;;;5009469;28;20267;-60
2023/06/28 01:49:36;;;;;;;8.57;2.30;;;;;;;;;;5013433;28;20232;-59
2023/06/28 01:52:02;;;;;;;7.28;2.90;;;;;;;;;;5013370;28;20220;-60
2023/06/28 01:54:28;;;;;;;6.30;2.30;;;;;;;;;;5014519;28;20296;-60
2023/06/28 01:56:54;;;;;;;7.43;2.30;;;;;;;;;;5014428;28;20256;-59
2023/06/28 01:59:19;;;;;;;9.40;2.45;;;;;;;;;;5014596;28;20255;-60
2023/06/28 02:01:44;;;;;;;7.00;2.58;;;;;;;;;;5014929;28;20221;-59
2023/06/28 02:04:10;;;;;;;9.25;2.50;;;;;;;;;;5013956;28;20300;-60
2023/06/28 02:06:38;;;;;;;9.85;2.70;;;;;;;;;;5014302;28;20307;-60
2023/06/28 02:09:03;;;;;;;7.32;2.70;;;;;;;;;;5008491;28;20311;-60
2023/06/28 02:11:29;;;;;;;8.32;2.40;;;;;;;;;;5004696;28;20304;-60
2023/06/28 02:13:54;;;;;;;7.25;2.60;;;;;;;;;;5000469;28;20291;-60
2023/06/28 02:16:22;;;;;;;10.05;2.58;;;;;;;;;;5010262;28;20216;-60
2023/06/28 02:18:49;;;;;;;5.65;2.25;;;;;;;;;;5013881;28;20292;-60
2023/06/28 02:21:14;;;;;;;7.80;2.60;;;;;;;;;;5013988;28;20217;-60
2023/06/28 02:23:40;;;;;;;5.72;2.28;;;;;;;;;;5014678;28;20227;-60
2023/06/28 02:26:05;;;;;;;5.57;2.30;;;;;;;;;;5013546;28;20212;-60
2023/06/28 02:28:30;;;;;;;6.05;2.40;;;;;;;;;;5014328;28;20231;-60
2023/06/28 02:30:56;;;;;;;5.70;2.20;;;;;;;;;;5014642;28;20220;-60
2023/06/28 02:33:21;;;;;;;6.68;2.40;;;;;;;;;;5013317;28;20607;-60
2023/06/28 02:35:46;;;;;;;7.78;2.40;;;;;;;;;;5014187;28;20626;-60
2023/06/28 02:38:12;;;;;;;5.85;2.45;;;;;;;;;;5013672;28;20678;-60
2023/06/28 02:40:38;;;;;;;6.68;2.40;;;;;;;;;;5014149;28;20247;-60
2023/06/28 02:43:03;;;;;;;8.52;2.47;;;;;;;;;;5013613;28;20710;-60
2023/06/28 02:45:28;;;;;;;6.65;2.40;;;;;;;;;;5013440;28;20239;-60
2023/06/28 02:47:54;;;;;;;8.52;2.50;;;;;;;;;;5014236;28;20228;-60
2023/06/28 02:50:19;;;;;;;6.45;2.15;;;;;;;;;;5013395;28;20299;-61
2023/06/28 02:52:44;;;;;;;6.63;2.42;;;;;;;;;;4998511;28;20220;-61
2023/06/28 02:55:10;;;;;;;7.93;2.65;;;;;;;;;;4984297;28;20283;-60
2023/06/28 02:57:37;;;;;;;8.18;2.20;;;;;;;;;;4984773;28;20235;-61
2023/06/28 03:00:02;;;;;;;8.02;2.42;;;;;;;;;;5002033;28;21025;-60
2023/06/28 03:02:27;;;;;;;5.88;2.30;;;;;;;;;;4979894;28;20235;-60
2023/06/28 03:04:53;;;;;;;6.25;2.30;;;;;;;;;;4976223;28;20583;-60
2023/06/28 03:07:18;;;;;;;6.28;2.40;;;;;;;;;;4975757;28;20232;-60
2023/06/28 03:09:44;;;;;;;5.90;2.38;;;;;;;;;;4980032;28;20734;-61
2023/06/28 03:12:09;;;;;;;6.63;2.35;;;;;;;;;;4983615;28;20304;-61
2023/06/28 03:14:35;;;;;;;8.10;2.45;;;;;;;;;;5000625;28;20619;-61
2023/06/28 03:17:00;;;;;;;6.90;2.58;;;;;;;;;;4984638;28;20786;-61
2023/06/28 03:19:25;;;;;;;5.63;2.35;;;;;;;;;;4983526;28;20244;-61
2023/06/28 03:21:51;;;;;;;5.13;2.40;;;;;;;;;;4987631;28;20804;-61
2023/06/28 03:24:16;;;;;;;7.15;2.35;;;;;;;;;;5000154;28;20603;-61
2023/06/28 03:26:41;;;;;;;8.35;2.90;;;;;;;;;;4988051;28;20399;-61
2023/06/28 03:29:07;;;;;;;9.25;3.05;;;;;;;;;;4974768;28;20316;-61
2023/06/28 03:31:32;;;;;;;8.27;2.63;;;;;;;;;;4978071;28;20225;-60
2023/06/28 03:33:58;;;;;;;6.43;2.40;;;;;;;;;;4983883;28;20217;-60
2023/06/28 03:36:24;;;;;;;6.18;2.53;;;;;;;;;;4982570;28;20267;-62
2023/06/28 03:38:50;;;;;;;8.32;2.72;;;;;;;;;;4983698;28;20803;-60
2023/06/28 03:41:15;;;;;;;7.38;2.70;;;;;;;;;;4983011;28;20213;-61
2023/06/28 03:43:40;;;;;;;7.70;2.70;;;;;;;;;;4983701;28;20224;-60
2023/06/28 03:46:06;;;;;;;3.63;1.90;;;;;;;;;;5001601;28;20273;-60
2023/06/28 03:48:31;;;;;;;4.00;1.50;;;;;;;;;;4995369;28;20236;-60
2023/06/28 03:50:56;;;;;;;5.85;1.95;;;;;;;;;;4994093;28;20251;-60
2023/06/28 03:53:22;;;;;;;6.63;2.30;;;;;;;;;;4994596;28;21232;-60
2023/06/28 03:55:47;;;;;;;6.10;1.98;;;;;;;;;;5001516;28;20879;-60
2023/06/28 03:58:12;;;;;;;6.72;2.00;;;;;;;;;;5017606;28;21403;-60
2023/06/28 04:00:38;;;;;;;5.32;2.03;;;;;;;;;;4996327;28;20217;-60
2023/06/28 04:03:03;;;;;;;6.50;1.80;;;;;;;;;;4982247;28;20244;-60
2023/06/28 04:05:29;;;;;;;8.82;2.28;;;;;;;;;;4983202;28;20244;-61
2023/06/28 04:07:57;;;;;;;7.82;2.78;;;;;;;;;;4983179;28;20695;-60
2023/06/28 04:10:23;;;;;;;10.63;2.13;;;;;;;;;;4977185;28;21017;-60
2023/06/28 04:12:48;;;;;;;10.70;2.50;;;;;;;;;;4974907;28;20205;-60
2023/06/28 04:15:13;;;;;;;6.70;2.47;;;;;;;;;;4974472;28;20726;-60
2023/06/28 04:17:39;;;;;;;6.47;2.17;;;;;;;;;;4980302;28;20217;-60
2023/06/28 04:20:06;;;;;;;9.75;2.47;;;;;;;;;;5001485;28;20235;-60
2023/06/28 04:22:31;;;;;;;8.73;2.70;;;;;;;;;;5002296;28;20309;-61
2023/06/28 04:24:56;;;;;;;8.27;2.75;;;;;;;;;;5001899;28;20335;-61
2023/06/28 04:27:22;;;;;;;8.02;2.80;;;;;;;;;;5001760;28;20689;-60
2023/06/28 04:29:47;;;;;;;5.78;2.75;;;;;;;;;;4991466;28;20227;-60
2023/06/28 04:32:23;;;;;;;7.25;3.10;;;;;;;;;;4974000;28;20283;-61
2023/06/28 04:34:52;;;;;;;7.93;3.63;;;;;;;;;;4993427;28;20223;-60
2023/06/28 04:37:18;;;;;;;9.55;3.65;;;;;;;;;;4998034;28;20212;-61
2023/06/28 04:39:43;;;;;;;7.20;3.30;;;;;;;;;;5001556;28;20745;-60
2023/06/28 04:42:09;;;;;;;12.35;4.10;;;;;;;;;;5001722;28;20220;-60
2023/06/28 04:44:36;;;;;;;9.15;3.58;;;;;;;;;;5002171;28;20523;-61
2023/06/28 04:47:02;;;;;;;8.07;3.60;;;;;;;;;;5000981;28;20371;-60
2023/06/28 04:49:27;;;;;;;6.82;3.17;;;;;;;;;;5001895;28;20632;-60
2023/06/28 04:51:54;;;;;;;8.25;3.67;;;;;;;;;;4999226;28;20946;-60
2023/06/28 04:54:19;;;;;;;7.15;3.20;;;;;;;;;;4993941;28;20251;-61
2023/06/28 04:56:45;;;;;;;6.90;3.20;;;;;;;;;;4980616;28;20611;-60
2023/06/28 04:59:10;;;;;;;10.88;3.95;;;;;;;;;;4975049;28;20221;-60
2023/06/28 05:01:37;;;;;;;9.95;3.88;;;;;;;;;;4982712;28;20274;-60
2023/06/28 05:04:02;;;;;;;9.57;4.10;;;;;;;;;;4988615;28;20235;-60
2023/06/28 05:06:28;;;;;;;8.90;4.25;;;;;;;;;;5000015;28;20212;-61
2023/06/28 05:08:53;;;;;;;11.32;4.72;;;;;;;;;;5008178;28;20299;-61
2023/06/28 05:11:19;;;;;;;9.63;4.40;;;;;;;;;;5010334;28;20830;-60
2023/06/28 05:13:44;;;;;;;8.68;4.40;;;;;;;;;;5011310;28;20262;-60
2023/06/28 05:16:09;;;;;;;10.75;4.55;;;;;;;;;;5011318;28;20235;-59
2023/06/28 05:18:35;;;;;;;9.40;4.30;;;;;;;;;;5005163;28;20484;-60
2023/06/28 05:21:00;;;;;;;8.30;3.80;;;;;;;;;;5001918;28;20228;-61
2023/06/28 05:23:25;;;;;;;9.45;4.03;;;;;;;;;;5000724;28;20242;-59
2023/06/28 05:25:51;;;;;;;8.57;4.22;;;;;;;;;;5005610;28;20208;-60
2023/06/28 05:28:16;;;;;;;9.18;4.05;;;;;;;;;;5004508;28;20664;-61
2023/06/28 05:30:42;;;;;;;8.43;4.53;;;;;;;;;;5004015;28;20228;-60
2023/06/28 05:33:07;;;;;;;8.88;3.85;;;;;;;;;;5005606;28;20212;-60
2023/06/28 05:35:33;;;;;;;10.52;4.20;;;;;;;;;;5004438;28;20213;-61
2023/06/28 05:37:59;;;;;;;8.10;4.50;;;;;;;;;;5004401;28;20201;-60
2023/06/28 05:40:25;;;;;;;9.32;4.50;;;;;;;;;;5005710;28;20688;-60
2023/06/28 05:42:50;;;;;;;11.88;4.30;;;;;;;;;;5002770;28;20229;-60
2023/06/28 05:45:16;;;;;;;9.40;4.40;;;;;;;;;;5003373;28;20228;-61
2023/06/28 05:47:41;;;;;;;8.98;3.65;;;;;;;;;;5005363;28;20233;-60
2023/06/28 05:50:08;;;;;;;10.40;4.93;;;;;;;;;;5001853;28;20433;-61
2023/06/28 05:52:34;;;;;;;9.55;4.25;;;;;;;;;;5009095;28;20223;-60
2023/06/28 05:54:59;;;;;;;10.35;4.85;;;;;;;;;;5015047;28;20212;-61
2023/06/28 05:57:24;;;;;;;11.55;3.92;;;;;;;;;;5002516;28;20224;-61
2023/06/28 05:59:50;;;;;;;6.68;3.50;;;;;;;;;;5005211;28;20587;-60
2023/06/28 06:02:15;;;;;;;8.52;3.45;;;;;;;;;;5002655;28;20205;-60
2023/06/28 06:04:40;;;;;;;7.53;3.40;;;;;;;;;;5004951;28;20219;-60
2023/06/28 06:07:06;;;;;;;10.52;3.90;;;;;;;;;;5003489;28;20209;-60
2023/06/28 06:09:32;;;;;;;12.00;3.85;;;;;;;;;;5005659;28;20372;-60
2023/06/28 06:11:57;;;;;;;9.02;3.50;;;;;;;;;;5004206;28;20547;-61
2023/06/28 06:14:22;;;;;;;8.45;3.50;;;;;;;;;;5012037;28;20295;-62
2023/06/28 06:16:48;;;;;;;9.88;3.13;;;;;;;;;;5003488;28;20254;-61
2023/06/28 06:19:13;;;;;;;10.48;3.70;;;;;;;;;;5007819;28;20223;-62
2023/06/28 06:21:38;;;;;;;10.85;3.60;;;;;;;;;;4995153;28;20255;-62
2023/06/28 06:24:07;;;;;;;9.20;3.58;;;;;;;;;;4994401;28;20225;-61
2023/06/28 06:26:33;;;;;;;9.38;3.60;;;;;;;;;;5014738;28;20215;-62
2023/06/28 06:28:59;;;;;;;10.95;3.78;;;;;;;;;;5027506;28;20664;-62
2023/06/28 06:31:24;;;;;;;8.70;3.50;;;;;;;;;;5011599;28;20328;-61
2023/06/28 06:33:49;;;;;;;9.32;3.75;;;;;;;;;;5014277;28;20219;-61
2023/06/28 06:36:15;;;;;;;8.07;3.65;;;;;;;;;;5013744;28;20619;-61
2023/06/28 06:38:40;;;;;;;8.68;3.90;;;;;;;;;;5013909;28;20750;-61
2023/06/28 06:41:06;;;;;;;9.70;3.65;;;;;;;;;;5013660;28;20291;-60
2023/06/28 06:43:31;;;;;;;8.73;3.88;;;;;;;;;;5014417;28;20216;-61
2023/06/28 06:45:57;;;;;;;9.40;3.97;;;;;;;;;;5013507;28;20212;-61
2023/06/28 06:48:23;;;;;;;7.90;3.63;;;;;;;;;;5012279;28;20216;-61
2023/06/28 06:50:48;;;;;;;10.77;4.00;;;;;;;;;;5013676;28;20212;-62
2023/06/28 06:53:13;;;;;;;10.93;4.15;;;;;;;;;;5012993;28;20219;-61
2023/06/28 06:55:39;;;;;;;11.00;4.43;;;;;;;;;;5011474;28;20236;-61
2023/06/28 06:58:04;;;;;;;13.20;4.40;;;;;;;;;;5013104;28;20212;-63
2023/06/28 07:00:29;;;;;;;11.18;4.68;;;;;;;;;;5012835;28;20247;-61
2023/06/28 07:02:55;;;;;;;9.35;4.55;;;;;;;;;;5013235;28;20671;-61
2023/06/28 07:05:20;;;;;;;10.27;4.80;;;;;;;;;;5012851;28;20247;-61
2023/06/28 07:07:45;;;;;;;11.73;5.43;;;;;;;;;;5012925;28;20256;-61
2023/06/28 07:10:11;;;;;;;11.30;5.25;;;;;;;;;;5012560;28;20219;-62
2023/06/28 07:12:36;;;;;;;11.85;5.50;;;;;;;;;;5012895;28;20277;-61
2023/06/28 07:15:01;;;;;;;12.55;5.82;;;;;;;;;;5012895;28;20728;-62
2023/06/28 07:17:27;;;;;;;12.80;5.97;;;;;;;;;;5013439;28;20307;-61
2023/06/28 07:19:52;;;;;;;14.23;6.00;;;;;;;;;;5012759;28;20728;-62
2023/06/28 07:22:17;;;;;;;14.75;6.10;;;;;;;;;;5012093;28;20211;-61
2023/06/28 07:24:43;;;;;;;12.80;5.80;;;;;;;;;;5012923;28;20204;-61
2023/06/28 07:27:08;;;;;;;12.15;6.07;;;;;;;;;;5012371;28;20228;-61
2023/06/28 07:29:33;;;;;;;13.25;6.15;;;;;;;;;;5012666;28;20208;-61
2023/06/28 07:31:59;;;;;;;12.35;6.03;;;;;;;;;;5012909;28;20282;-62
2023/06/28 07:34:24;;;;;;;11.32;6.40;;;;;;;;;;5011084;28;20200;-61
2023/06/28 07:36:49;;;;;;;12.00;6.72;;;;;;;;;;5012781;28;20217;-61
2023/06/28 07:39:15;;;;;;;11.40;6.57;;;;;;;;;;5012436;28;20208;-60
2023/06/28 07:41:40;;;;;;;12.15;6.90;;;;;;;;;;5012801;28;20628;-61
2023/06/28 07:44:05;;;;;;;10.38;6.30;;;;;;;;;;5012501;28;20213;-61
2023/06/28 07:46:31;;;;;;;15.27;6.57;;;;;;;;;;5012653;28;20220;-61
2023/06/28 07:48:59;;;;;;;10.95;6.35;;;;;;;;;;5012519;28;20225;-61
2023/06/28 07:51:24;;;;;;;12.10;7.00;;;;;;;;;;5012156;28;20208;-61
2023/06/28 07:53:49;;;;;;;12.50;6.70;;;;;;;;;;5012951;28;20212;-61
2023/06/28 07:56:15;;;;;;;13.07;6.75;;;;;;;;;;5011869;28;20235;-61
2023/06/28 07:58:40;;;;;;;13.45;7.78;;;;;;;;;;5010478;28;20239;-61
2023/06/28 08:01:05;;;;;;;14.38;6.78;;;;;;;;;;5011884;28;20282;-61
2023/06/28 08:03:31;;;;;;;14.48;7.32;;;;;;;;;;5009819;28;20216;-61
2023/06/28 08:05:56;;;;;;;13.07;6.82;;;;;;;;;;5011621;28;20307;-61
2023/06/28 08:08:21;;;;;;;12.90;7.00;;;;;;;;;;5012158;28;20307;-61
2023/06/28 08:10:48;;;;;;;13.70;7.05;;;;;;;;;;5010608;28;20304;-61
2023/06/28 08:13:13;;;;;;;14.15;6.60;;;;;;;;;;5011779;28;20216;-61
2023/06/28 08:15:39;;;;;;;12.13;6.85;;;;;;;;;;5012169;28;20797;-61
2023/06/28 08:18:05;;;;;;;10.40;6.63;;;;;;;;;;5011053;28;20204;-61
2023/06/28 08:20:31;;;;;;;14.82;6.55;;;;;;;;;;5011876;28;20220;-60
2023/06/28 08:22:56;;;;;;;13.02;6.53;;;;;;;;;;5011848;28;20698;-61
2023/06/28 08:25:22;;;;;;;13.35;6.47;;;;;;;;;;5011940;28;20577;-61
2023/06/28 08:27:47;;;;;;;13.73;6.78;;;;;;;;;;5012365;28;20583;-61
2023/06/28 08:30:12;;;;;;;16.45;6.90;;;;;;;;;;5011322;28;20224;-61
2023/06/28 08:32:38;;;;;;;14.95;6.18;;;;;;;;;;5012264;28;20359;-60
2023/06/28 08:35:04;;;;;;;16.83;6.75;;;;;;;;;;5011396;28;20227;-61
2023/06/28 08:37:31;;;;;;;17.60;6.60;;;;;;;;;;4987039;28;65681;-60
2023/06/28 08:39:56;;;;;;;14.32;5.97;;;;;;;;;;4969712;28;20237;-60
2023/06/28 08:42:22;;;;;;;14.77;6.30;;;;;;;;;;4972627;28;20657;-61
2023/06/28 08:44:49;;;;;;;11.02;6.90;;;;;;;;;;4971269;28;20728;-60
2023/06/28 08:47:15;;;;;;;14.40;6.22;;;;;;;;;;4972102;28;20232;-60
2023/06/28 08:49:40;;;;;;;13.80;6.57;;;;;;;;;;4972490;28;20237;-61
2023/06/28 08:52:06;;;;;;;13.02;6.65;;;;;;;;;;4968557;28;20239;-60
2023/06/28 08:54:31;;;;;;;17.33;6.68;;;;;;;;;;4970559;28;20281;-60
2023/06/28 08:56:56;;;;;;;15.18;7.03;;;;;;;;;;4971405;28;20559;-60
2023/06/28 08:59:22;;;;;;;16.88;7.65;;;;;;;;;;4974069;28;20218;-61
2023/06/28 09:01:47;;;;;;;10.20;6.70;;;;;;;;;;4976650;28;20683;-61
2023/06/28 09:04:12;;;;;;;16.60;6.85;;;;;;;;;;4976450;28;20217;-61
2023/06/28 09:06:38;;;;;;;13.52;6.90;;;;;;;;;;4976384;28;20209;-61
2023/06/28 09:09:03;;;;;;;17.75;7.20;;;;;;;;;;4976043;28;20225;-60
2023/06/28 09:11:28;;;;;;;13.50;7.10;;;;;;;;;;4975660;28;20213;-61
2023/06/28 09:13:54;;;;;;;11.77;7.10;;;;;;;;;;4974987;28;20217;-60
2023/06/28 09:16:20;;;;;;;14.73;7.00;;;;;;;;;;4976083;28;20572;-60
2023/06/28 09:18:46;;;;;;;12.45;6.72;;;;;;;;;;4976770;28;20244;-61
2023/06/28 09:21:12;;;;;;;13.13;6.18;;;;;;;;;;4974844;28;20206;-61
2023/06/28 09:23:37;;;;;;;17.48;6.78;;;;;;;;;;4974620;28;20677;-61
2023/06/28 09:26:03;;;;;;;15.27;7.00;;;;;;;;;;4976289;28;20419;-60
2023/06/28 09:28:35;;;;;;;17.15;6.80;;;;;;;;;;4975976;28;20222;-60
2023/06/28 09:31:00;;;;;;;14.20;6.97;;;;;;;;;;4975975;28;20300;-60
2023/06/28 09:33:25;;;;;;;15.05;7.22;;;;;;;;;;4976088;28;20316;-61
2023/06/28 09:35:53;;;;;;;13.05;6.43;;;;;;;;;;4976260;28;20214;-60
2023/06/28 09:38:18;;;;;;;13.50;6.18;;;;;;;;;;4976009;28;20331;-60
2023/06/28 09:40:43;;;;;;;12.80;6.53;;;;;;;;;;4975451;28;20692;-61
2023/06/28 09:43:13;;;;;;;12.60;6.28;;;;;;;;;;4975968;28;20348;-60
2023/06/28 09:45:38;;;;;;;12.93;6.00;;;;;;;;;;4976290;28;20213;-61
2023/06/28 09:48:04;;;;;;;11.10;6.22;;;;;;;;;;4975438;28;20732;-61
2023/06/28 09:50:41;;;;;;;13.05;6.82;;;;;;;;;;4975667;28;20229;-62
2023/06/28 09:53:09;;;;;;;13.50;6.25;;;;;;;;;;4975893;28;20317;-60
2023/06/28 09:55:38;;;;;;;16.00;7.30;;;;;;;;;;4975096;28;20240;-61
2023/06/28 09:58:04;;;;;;;14.15;6.05;;;;;;;;;;4975741;28;20221;-60
2023/06/28 10:00:31;;;;;;;14.55;6.53;;;;;;;;;;4976280;28;20284;-60
2023/06/28 10:02:57;;;;;;;17.65;6.35;;;;;;;;;;4973209;28;20601;-61
2023/06/28 10:05:22;;;;;;;16.27;6.60;;;;;;;;;;4974935;28;20217;-60
2023/06/28 10:07:47;;;;;;;13.85;6.25;;;;;;;;;;4974764;28;20241;-61
2023/06/28 10:10:13;;;;;;;18.08;6.82;;;;;;;;;;4974160;28;20573;-60
2023/06/28 10:12:38;;;;;;;14.63;6.25;;;;;;;;;;4975804;28;20217;-60
2023/06/28 10:15:06;;;;;;;16.98;6.80;;;;;;;;;;4974100;28;20206;-60
2023/06/28 10:17:32;;;;;;;15.18;5.63;;;;;;;;;;4975223;28;20224;-60
2023/06/28 10:19:57;;;;;;;12.77;5.50;;;;;;;;;;4974998;28;20214;-60
2023/06/28 10:22:23;;;;;;;13.93;5.93;;;;;;;;;;4975108;28;20225;-60
2023/06/28 10:24:48;;;;;;;14.13;5.88;;;;;;;;;;4974839;28;20272;-61
2023/06/28 10:27:13;;;;;;;13.25;6.40;;;;;;;;;;4974942;28;20680;-60
2023/06/28 10:29:39;;;;;;;15.65;6.60;;;;;;;;;;4975076;28;20576;-60
2023/06/28 10:32:04;;;;;;;13.68;6.75;;;;;;;;;;4973943;28;20677;-60
2023/06/28 10:34:30;;;;;;;13.48;6.90;;;;;;;;;;4973565;28;20221;-60
2023/06/28 10:36:56;;;;;;;13.10;7.03;;;;;;;;;;4974867;28;20220;-61
2023/06/28 10:39:21;;;;;;;16.30;7.75;;;;;;;;;;4974958;28;20313;-61
2023/06/28 10:41:53;;;;;;;13.63;6.95;;;;;;;;;;4974966;28;20300;-60
2023/06/28 10:44:19;;;;;;;14.90;7.25;;;;;;;;;;4973093;28;20301;-61
2023/06/28 10:46:44;;;;;;;17.75;7.22;;;;;;;;;;4973862;28;20721;-60
2023/06/28 10:49:09;;;;;;;14.57;7.35;;;;;;;;;;4973253;28;20666;-61
2023/06/28 10:51:36;;;;;;;14.02;7.05;;;;;;;;;;4974358;28;20212;-61
2023/06/28 10:54:09;;;;;;;14.25;8.00;;;;;;;;;;4974576;28;20223;-60
2023/06/28 10:56:35;;;;;;;14.18;7.80;;;;;;;;;;4974969;28;20745;-61
2023/06/28 10:59:00;;;;;;;14.45;8.00;;;;;;;;;;4974987;28;20309;-61
2023/06/28 11:01:38;;;;;;;14.73;7.97;;;;;;;;;;4992475;28;20217;-60
2023/06/28 11:04:10;;;;;;;15.05;8.18;;;;;;;;;;4982368;28;20213;-60
2023/06/28 11:06:37;;;;;;;15.85;7.68;;;;;;;;;;4973848;28;20218;-61
2023/06/28 11:09:11;;;;;;;14.00;8.20;;;;;;;;;;4971365;28;20583;-60
2023/06/28 11:11:37;;;;;;;15.70;8.00;;;;;;;;;;4970631;28;20229;-61
2023/06/28 11:14:21;;;;;;;13.85;7.78;;;;;;;;;;4973103;28;20680;-61
2023/06/28 11:16:47;;;;;;;13.85;7.28;;;;;;;;;;4974120;28;20280;-61
2023/06/28 11:19:13;;;;;;;13.93;7.50;;;;;;;;;;4973159;28;20235;-60
2023/06/28 11:21:38;;;;;;;13.60;6.88;;;;;;;;;;4973385;28;20669;-62
2023/06/28 11:24:03;;;;;;;16.60;7.88;;;;;;;;;;4974370;28;20276;-61
2023/06/28 11:26:33;;;;;;;14.70;7.32;;;;;;;;;;4973014;28;20268;-61
2023/06/28 11:28:58;;;;;;;13.25;7.45;;;;;;;;;;4973071;28;20308;-63
2023/06/28 11:31:25;;;;;;;14.52;7.85;;;;;;;;;;4973967;28;20296;-61
2023/06/28 11:33:52;;;;;;;14.50;7.35;;;;;;;;;;4973610;28;20227;-61
2023/06/28 11:36:18;;;;;;;17.48;8.50;;;;;;;;;;4973555;28;20572;-62
2023/06/28 11:38:44;;;;;;;15.48;8.60;;;;;;;;;;4974317;28;20319;-61
2023/06/28 11:41:10;;;;;;;12.52;7.50;;;;;;;;;;4973185;28;20622;-61
2023/06/28 11:43:35;;;;;;;17.58;8.10;;;;;;;;;;4973424;28;20217;-61
2023/06/28 11:46:01;;;;;;;15.52;8.55;;;;;;;;;;4973415;28;20217;-61
2023/06/28 11:48:26;;;;;;;14.50;8.40;;;;;;;;;;4973312;28;20221;-61
2023/06/28 11:51:01;;;;;;;16.65;8.50;;;;;;;;;;4973936;28;20225;-61
2023/06/28 11:53:27;;;;;;;12.95;8.00;;;;;;;;;;4970099;28;20224;-61
2023/06/28 11:55:53;;;;;;;15.50;8.48;;;;;;;;;;4973249;28;20292;-61
2023/06/28 11:58:26;;;;;;;15.43;8.65;;;;;;;;;;4973112;28;20209;-61
2023/06/28 12:00:51;;;;;;;17.23;9.05;;;;;;;;;;4973871;28;20218;-61
2023/06/28 12:03:21;;;;;;;16.83;9.70;;;;;;;;;;4971271;28;20264;-61
2023/06/28 12:05:54;;;;;;;16.15;9.38;;;;;;;;;;4972249;28;20222;-61
2023/06/28 12:08:19;;;;;;;18.88;9.50;;;;;;;;;;4972417;28;20244;-61
2023/06/28 12:10:44;;;;;;;19.05;9.77;;;;;;;;;;4972172;28;20680;-61
2023/06/28 12:13:23;;;;;;;14.85;9.23;;;;;;;;;;4971674;28;20245;-61
2023/06/28 12:15:49;;;;;;;16.05;9.80;;;;;;;;;;4973069;28;20218;-61
2023/06/28 12:18:14;;;;;;;16.95;9.73;;;;;;;;;;4972519;28;20214;-61
2023/06/28 12:20:40;;;;;;;15.95;9.52;;;;;;;;;;4973439;28;20237;-61
2023/06/28 12:23:12;;;;;;;18.52;9.93;;;;;;;;;;4970217;28;20622;-60
2023/06/28 12:25:43;;;;;;;16.20;10.02;;;;;;;;;;4973374;28;20224;-61
2023/06/28 12:28:15;;;;;;;17.50;10.48;;;;;;;;;;4972864;28;20257;-61
2023/06/28 12:30:40;;;;;;;15.15;9.48;;;;;;;;;;4973086;28;20220;-61
2023/06/28 12:33:06;;;;;;;18.98;9.98;;;;;;;;;;4972211;28;20213;-61
2023/06/28 12:35:32;;;;;;;15.88;9.65;;;;;;;;;;4973369;28;20217;-61
2023/06/28 12:37:57;;;;;;;14.65;9.85;;;;;;;;;;4972458;28;20216;-61
2023/06/28 12:40:24;;;;;;;18.83;10.32;;;;;;;;;;4972497;28;20224;-61
2023/06/28 12:43:08;;;;;;;15.43;9.77;;;;;;;;;;4972943;28;20213;-61
2023/06/28 12:45:33;;;;;;;17.63;9.63;;;;;;;;;;4972603;28;20217;-61
2023/06/28 12:47:59;;;;;;;17.35;9.10;;;;;;;;;;4972628;28;20229;-61
2023/06/28 12:50:24;;;;;;;17.27;9.32;;;;;;;;;;4972206;28;20233;-61
2023/06/28 12:52:49;;;;;;;21.60;9.90;;;;;;;;;;4972695;28;20249;-62
2023/06/28 12:55:15;;;;;;;17.25;10.23;;;;;;;;;;4972472;28;20316;-61
2023/06/28 12:57:40;;;;;;;13.75;8.48;;;;;;;;;;4972592;28;20328;-62
2023/06/28 13:00:06;;;;;;;18.80;8.88;;;;;;;;;;4972360;28;20309;-61
2023/06/28 13:02:31;;;;;;;16.30;9.02;;;;;;;;;;4973019;28;20214;-62
2023/06/28 13:04:57;;;;;;;14.10;8.73;;;;;;;;;;4972049;28;20228;-61
2023/06/28 13:07:22;;;;;;;17.45;9.02;;;;;;;;;;4972176;28;20213;-61
2023/06/28 13:09:47;;;;;;;16.05;8.75;;;;;;;;;;4972931;28;20268;-62
2023/06/28 13:12:13;;;;;;;17.50;9.45;;;;;;;;;;4972046;28;20581;-61
2023/06/28 13:14:38;;;;;;;17.17;8.90;;;;;;;;;;4972213;28;20669;-62
2023/06/28 13:17:05;;;;;;;16.35;9.27;;;;;;;;;;4972342;28;20241;-61
2023/06/28 13:19:31;;;;;;;16.05;8.55;;;;;;;;;;4971774;28;20244;-61
2023/06/28 13:21:56;;;;;;;17.73;9.38;;;;;;;;;;4969380;28;20665;-61
2023/06/28 13:24:23;;;;;;;19.63;10.43;;;;;;;;;;4972369;28;20214;-61
2023/06/28 13:26:48;;;;;;;19.77;9.95;;;;;;;;;;4972482;28;20310;-61
2023/06/28 13:29:15;;;;;;;18.80;9.73;;;;;;;;;;4972064;28;20312;-61
2023/06/28 13:31:42;;;;;;;17.25;9.88;;;;;;;;;;4972840;28;20232;-61
2023/06/28 13:34:07;;;;;;;16.20;9.93;;;;;;;;;;4969238;28;20214;-61
2023/06/28 13:36:32;;;;;;;16.77;10.25;;;;;;;;;;4972790;28;20214;-61
2023/06/28 13:38:58;;;;;;;17.02;9.57;;;;;;;;;;4972608;28;20221;-61
2023/06/28 13:41:23;;;;;;;18.20;10.75;;;;;;;;;;4971834;28;20222;-61
2023/06/28 13:43:48;;;;;;;19.08;10.45;;;;;;;;;;4972402;28;20252;-61
2023/06/28 13:46:14;;;;;;;19.35;10.63;;;;;;;;;;4975266;28;20213;-61
2023/06/28 13:48:39;;;;;;;16.33;10.32;;;;;;;;;;4973129;28;20722;-61
2023/06/28 13:51:05;;;;;;;18.85;10.75;;;;;;;;;;4975704;28;20692;-60
2023/06/28 13:53:30;;;;;;;19.08;10.82;;;;;;;;;;4975716;28;20238;-61
2023/06/28 13:55:58;;;;;;;16.52;11.05;;;;;;;;;;4975633;28;20229;-61
2023/06/28 13:58:24;;;;;;;21.02;11.40;;;;;;;;;;4975710;28;20214;-61
2023/06/28 14:00:49;;;;;;;17.10;10.10;;;;;;;;;;4975562;28;20217;-61
2023/06/28 14:03:15;;;;;;;17.52;10.02;;;;;;;;;;4975051;28;20629;-61
2023/06/28 14:05:40;;;;;;;20.05;10.80;;;;;;;;;;4975945;28;20244;-60
2023/06/28 14:08:05;;;;;;;17.95;11.15;;;;;;;;;;4974863;28;20221;-61
2023/06/28 14:10:31;;;;;;;17.90;10.98;;;;;;;;;;4975680;28;20241;-61
2023/06/28 14:12:56;;;;;;;19.02;10.18;;;;;;;;;;4975935;28;20306;-61
2023/06/28 14:15:22;;;;;;;16.10;10.70;;;;;;;;;;4974496;28;20218;-61
2023/06/28 14:17:47;;;;;;;17.83;10.18;;;;;;;;;;4974746;28;20218;-61
2023/06/28 14:20:12;;;;;;;17.27;10.50;;;;;;;;;;4975023;28;20206;-61
2023/06/28 14:22:38;;;;;;;16.73;10.70;;;;;;;;;;4975126;28;20700;-61
2023/06/28 14:25:04;;;;;;;19.38;11.45;;;;;;;;;;4974787;28;20221;-61